Time;durP1;ratioP1;P1;durP2;ratioP2;P2;SDS_P1;SDS_P2;PMS_P1;PMS_P2;Temp;Humidity;BMP_temperature;BMP_pressure;BME280_temperature;BME280_humidity;BME280_pressure;Samples;Min_cycle;Max_cycle;Signal;HPM_P1;HPM_P2
2021/12/14 00:01:23;;;;;;;25.15;13.93;;;5.80;99.90;;;;;;5122104;27;20527;-72
2021/12/14 00:03:53;;;;;;;22.35;12.40;;;5.80;99.90;;;;;;5144255;27;20022;-72
2021/12/14 00:06:20;;;;;;;24.52;14.73;;;5.80;99.90;;;;;;5146554;27;20037;-72
2021/12/14 00:08:57;;;;;;;22.30;14.43;;;5.80;99.90;;;;;;5134960;27;20046;-72
2021/12/14 00:12:27;;;;;;;25.95;14.90;;;5.80;99.90;;;;;;5125994;27;20031;-72
2021/12/14 00:16:59;;;;;;;28.67;15.48;;;5.80;99.90;;;;;;5122616;27;20038;-72
2021/12/14 00:19:26;;;;;;;26.77;14.50;;;5.80;99.90;;;;;;5132138;27;20462;-72
2021/12/14 00:21:54;;;;;;;24.38;14.43;;;5.80;99.90;;;;;;5126450;27;20448;-72
2021/12/14 00:24:25;;;;;;;23.27;14.25;;;5.80;99.90;;;;;;5115847;27;20023;-72
2021/12/14 00:26:59;;;;;;;25.73;15.07;;;5.80;99.90;;;;;;5131792;27;20023;-72
2021/12/14 00:29:38;;;;;;;31.98;16.13;;;5.80;99.90;;;;;;5109897;27;20042;-72
2021/12/14 00:32:08;;;;;;;29.20;16.70;;;5.70;99.90;;;;;;5131652;27;20441;-72
2021/12/14 00:34:41;;;;;;;26.25;14.90;;;5.70;99.90;;;;;;5131553;27;20088;-72
2021/12/14 00:37:17;;;;;;;25.30;14.27;;;5.70;99.90;;;;;;5128871;27;20080;-72
2021/12/14 00:39:45;;;;;;;23.63;13.40;;;5.70;99.90;;;;;;5131271;27;20540;-72
2021/12/14 00:42:10;;;;;;;24.08;13.43;;;5.70;99.90;;;;;;5130533;27;20486;-72
2021/12/14 00:44:37;;;;;;;25.33;13.43;;;5.70;99.90;;;;;;5131394;27;20055;-72
2021/12/14 00:47:03;;;;;;;27.08;14.38;;;5.60;99.90;;;;;;5131245;27;20528;-72
2021/12/14 00:49:30;;;;;;;25.52;13.98;;;5.60;99.90;;;;;;5130368;27;20033;-72
2021/12/14 00:51:56;;;;;;;29.00;14.52;;;5.60;99.90;;;;;;5131413;27;20034;-72
2021/12/14 00:54:22;;;;;;;26.48;14.60;;;5.60;99.90;;;;;;5130496;27;20019;-72
2021/12/14 00:56:49;;;;;;;26.98;14.15;;;5.60;99.90;;;;;;5131501;28;20487;-71
2021/12/14 00:59:16;;;;;;;27.88;14.38;;;5.60;99.90;;;;;;5112473;28;20417;-71
2021/12/14 01:01:51;;;;;;;28.00;13.68;;;5.60;99.90;;;;;;5131752;28;20027;-72
2021/12/14 01:04:23;;;;;;;26.38;14.10;;;5.60;99.90;;;;;;5131139;28;20023;-72
2021/12/14 01:06:50;;;;;;;25.65;13.20;;;5.60;99.90;;;;;;5128604;28;20034;-72
2021/12/14 01:09:24;;;;;;;25.13;12.57;;;5.50;99.90;;;;;;5130592;28;20011;-72
2021/12/14 01:11:51;;;;;;;29.27;13.32;;;5.60;99.90;;;;;;5129097;28;20019;-72
2021/12/14 01:14:29;;;;;;;28.05;13.65;;;5.50;99.90;;;;;;5130455;28;20117;-72
2021/12/14 01:17:12;;;;;;;22.33;13.68;;;5.50;99.90;;;;;;5131646;27;20368;-72
2021/12/14 01:19:42;;;;;;;23.30;11.85;;;5.50;99.90;;;;;;5131377;27;20494;-72
2021/12/14 01:27:40;;;;;;;26.92;13.50;;;5.50;99.90;;;;;;5134383;27;20088;-72
2021/12/14 01:30:17;;;;;;;21.90;11.82;;;5.50;99.90;;;;;;5132094;27;20015;-72
2021/12/14 01:32:46;;;;;;;24.60;11.60;;;5.50;99.90;;;;;;5135119;27;20026;-72
2021/12/14 01:35:15;;;;;;;24.63;12.63;;;5.50;99.90;;;;;;5134129;27;20015;-72
2021/12/14 01:37:58;;;;;;;22.15;11.55;;;5.50;99.90;;;;;;5134814;27;20035;-72
2021/12/14 01:41:07;;;;;;;23.38;12.35;;;5.50;99.90;;;;;;5134097;27;20023;-72
2021/12/14 01:43:14;;;;;;;22.43;11.73;;;5.50;99.90;;;;;;5116465;27;20475;-72
2021/12/14 01:45:39;;;;;;;20.75;10.63;;;5.50;99.90;;;;;;5134728;27;20253;-72
2021/12/14 01:48:07;;;;;;;19.25;11.20;;;5.50;99.90;;;;;;5134387;27;20031;-72
2021/12/14 01:50:38;;;;;;;21.50;10.73;;;5.50;99.90;;;;;;5134299;27;20022;-72
2021/12/14 01:53:04;;;;;;;21.77;10.52;;;5.50;99.90;;;;;;5134800;27;20447;-72
2021/12/14 01:55:35;;;;;;;20.85;11.02;;;5.50;99.90;;;;;;5134560;27;20080;-72
2021/12/14 01:58:05;;;;;;;20.15;10.38;;;5.50;99.90;;;;;;5136338;27;20506;-72
2021/12/14 02:00:46;;;;;;;19.02;10.00;;;5.50;99.90;;;;;;5135465;27;20105;-71
2021/12/14 02:03:15;;;;;;;20.63;11.07;;;5.50;99.90;;;;;;5135290;27;20031;-72
2021/12/14 02:05:45;;;;;;;19.95;10.50;;;5.50;99.90;;;;;;5135636;27;20098;-71
2021/12/14 02:08:20;;;;;;;25.90;12.18;;;5.50;99.90;;;;;;5134342;27;20172;-72
2021/12/14 02:10:46;;;;;;;20.70;11.05;;;5.50;99.90;;;;;;5135686;27;20037;-72
2021/12/14 02:13:12;;;;;;;25.27;12.32;;;5.50;99.90;;;;;;5134615;27;20031;-72
2021/12/14 02:15:43;;;;;;;22.73;12.00;;;5.50;99.90;;;;;;5135157;27;20498;-72
2021/12/14 02:18:14;;;;;;;20.55;11.60;;;5.50;99.90;;;;;;5134923;27;20499;-72
2021/12/14 02:21:05;;;;;;;20.58;12.00;;;5.50;99.90;;;;;;5135633;27;20060;-70
2021/12/14 02:23:33;;;;;;;21.02;11.27;;;5.50;99.90;;;;;;5134291;27;20042;-71
2021/12/14 02:26:04;;;;;;;22.38;11.68;;;5.50;99.90;;;;;;5134405;27;20030;-71
2021/12/14 02:28:30;;;;;;;25.85;12.30;;;5.50;99.90;;;;;;5134334;27;20023;-71
2021/12/14 02:30:59;;;;;;;25.35;12.43;;;5.40;99.90;;;;;;5134884;27;20027;-71
2021/12/14 02:33:32;;;;;;;23.53;12.30;;;5.50;99.90;;;;;;5133715;27;20023;-71
2021/12/14 02:35:59;;;;;;;23.65;11.85;;;5.40;99.90;;;;;;5134717;27;20264;-71
2021/12/14 02:38:26;;;;;;;29.48;12.80;;;5.40;99.90;;;;;;5098622;27;20126;-70
2021/12/14 02:40:59;;;;;;;25.65;12.10;;;5.40;99.90;;;;;;5134977;27;20073;-72
2021/12/14 02:43:36;;;;;;;25.00;12.02;;;5.40;99.90;;;;;;5134332;27;20028;-72
2021/12/14 02:46:07;;;;;;;24.92;12.13;;;5.50;99.90;;;;;;5134360;27;20057;-71
2021/12/14 02:48:33;;;;;;;29.65;12.38;;;5.40;99.90;;;;;;5134594;27;20557;-71
2021/12/14 02:51:07;;;;;;;22.92;12.10;;;5.40;99.90;;;;;;5134832;27;20027;-71
2021/12/14 02:53:33;;;;;;;27.15;11.95;;;5.40;99.90;;;;;;5134285;27;20114;-71
2021/12/14 02:55:59;;;;;;;26.60;12.85;;;5.40;99.90;;;;;;5134846;27;20106;-72
2021/12/14 02:58:25;;;;;;;25.58;11.70;;;5.40;99.90;;;;;;5133824;27;20054;-72
2021/12/14 03:00:52;;;;;;;25.73;11.75;;;5.40;99.90;;;;;;5134512;27;20051;-71
2021/12/14 03:03:19;;;;;;;24.67;11.75;;;5.40;99.90;;;;;;5134040;27;20043;-71
2021/12/14 03:05:48;;;;;;;23.25;10.60;;;5.40;99.90;;;;;;5134616;27;20027;-71
2021/12/14 03:08:24;;;;;;;23.85;11.48;;;5.40;99.90;;;;;;5133955;27;20035;-72
2021/12/14 03:11:09;;;;;;;23.65;11.15;;;5.40;99.90;;;;;;5134320;27;20417;-72
2021/12/14 03:13:37;;;;;;;23.80;11.52;;;5.40;99.90;;;;;;5133883;27;20031;-72
2021/12/14 03:16:08;;;;;;;22.20;10.43;;;5.40;99.90;;;;;;5133700;27;20532;-72
2021/12/14 03:18:40;;;;;;;22.23;10.88;;;5.40;99.90;;;;;;5133681;27;20095;-71
2021/12/14 03:21:10;;;;;;;22.58;10.65;;;5.40;99.90;;;;;;5134375;27;20524;-71
2021/12/14 03:23:44;;;;;;;22.83;10.48;;;5.30;99.90;;;;;;5133674;27;20459;-71
2021/12/14 03:26:13;;;;;;;20.25;9.90;;;5.30;99.90;;;;;;5133343;27;20035;-71
2021/12/14 03:28:41;;;;;;;21.30;9.88;;;5.30;99.90;;;;;;5133509;27;20141;-72
2021/12/14 03:31:27;;;;;;;20.70;9.75;;;5.30;99.90;;;;;;5133152;27;20076;-71
2021/12/14 03:34:13;;;;;;;22.27;10.68;;;5.30;99.90;;;;;;5133583;27;20032;-71
2021/12/14 03:36:44;;;;;;;23.17;10.13;;;5.30;99.90;;;;;;5133296;27;20460;-70
2021/12/14 03:39:22;;;;;;;26.15;10.80;;;5.30;99.90;;;;;;5132724;27;20386;-71
2021/12/14 03:42:05;;;;;;;22.38;10.38;;;5.30;99.90;;;;;;5122668;27;20063;-71
2021/12/14 03:44:41;;;;;;;21.63;10.45;;;5.30;99.90;;;;;;5132526;27;20610;-71
2021/12/14 03:47:28;;;;;;;30.35;12.55;;;5.30;99.90;;;;;;5132787;27;20088;-70
2021/12/14 03:50:16;;;;;;;25.20;10.38;;;5.20;99.90;;;;;;5133159;27;20126;-71
2021/12/14 03:52:43;;;;;;;23.58;10.82;;;5.20;99.90;;;;;;5132557;27;20042;-71
2021/12/14 03:55:19;;;;;;;25.70;10.45;;;5.20;99.90;;;;;;5132531;27;20080;-71
2021/12/14 03:57:45;;;;;;;20.80;9.52;;;5.10;99.90;;;;;;5133925;27;20070;-70
2021/12/14 04:00:17;;;;;;;20.27;8.55;;;5.10;99.90;;;;;;5133060;27;20051;-70
2021/12/14 04:02:43;;;;;;;18.13;9.40;;;5.10;99.90;;;;;;5133583;27;20038;-70
2021/12/14 04:05:12;;;;;;;21.80;10.27;;;5.10;99.90;;;;;;5133154;27;20073;-71
2021/12/14 04:07:41;;;;;;;23.52;10.23;;;5.10;99.90;;;;;;5133208;27;20027;-71
2021/12/14 04:10:29;;;;;;;23.77;11.27;;;5.10;99.90;;;;;;5133246;27;20023;-71
2021/12/14 04:12:56;;;;;;;26.02;11.20;;;5.10;99.90;;;;;;5133048;27;20023;-71
2021/12/14 04:15:22;;;;;;;27.30;11.63;;;5.10;99.90;;;;;;5132561;27;20448;-71
2021/12/14 04:17:49;;;;;;;27.55;11.30;;;5.10;99.90;;;;;;5133328;27;20042;-71
2021/12/14 04:20:27;;;;;;;27.92;11.68;;;5.00;99.90;;;;;;5132393;27;20038;-71
2021/12/14 04:22:54;;;;;;;27.95;12.23;;;5.00;99.90;;;;;;5117928;27;20066;-71
2021/12/14 04:25:24;;;;;;;26.25;11.82;;;5.00;99.90;;;;;;5124420;27;20024;-71
2021/12/14 04:27:52;;;;;;;28.50;12.15;;;5.10;99.90;;;;;;5132417;27;20060;-71
2021/12/14 04:30:22;;;;;;;30.10;12.20;;;5.00;99.90;;;;;;5131464;27;20039;-71
2021/12/14 04:32:51;;;;;;;28.98;12.70;;;5.00;99.90;;;;;;5132509;27;20030;-71
2021/12/14 04:35:18;;;;;;;24.88;10.57;;;5.00;99.90;;;;;;5131808;27;20043;-71
2021/12/14 04:37:49;;;;;;;28.05;13.13;;;5.00;99.90;;;;;;5132226;27;20408;-71
2021/12/14 04:54:01;;;;;;;30.48;12.73;;;4.90;99.90;;;;;;5116617;27;20037;-71
2021/12/14 04:56:31;;;;;;;32.88;14.07;;;4.90;99.90;;;;;;5131242;28;20106;-70
2021/12/14 04:59:10;;;;;;;27.92;13.10;;;4.80;99.90;;;;;;5131953;27;20027;-71
2021/12/14 05:01:40;;;;;;;28.52;12.95;;;4.80;99.90;;;;;;5131630;28;20076;-71
2021/12/14 05:04:09;;;;;;;29.23;12.88;;;4.80;99.90;;;;;;5132222;28;20019;-71
2021/12/14 05:06:50;;;;;;;29.15;13.13;;;4.80;99.90;;;;;;5131386;28;20203;-71
2021/12/14 05:09:22;;;;;;;31.90;13.40;;;4.80;99.90;;;;;;5131525;28;20464;-71
2021/12/14 05:11:53;;;;;;;30.98;13.27;;;4.80;99.90;;;;;;5131788;28;20015;-71
2021/12/14 05:14:20;;;;;;;28.90;12.18;;;4.80;99.90;;;;;;5126793;28;20059;-71
2021/12/14 05:16:47;;;;;;;33.20;13.38;;;4.70;99.90;;;;;;5128048;28;20023;-71
2021/12/14 05:19:13;;;;;;;27.38;12.30;;;4.70;99.90;;;;;;5130658;28;20058;-71
2021/12/14 05:21:47;;;;;;;28.02;12.88;;;4.80;99.90;;;;;;5130790;28;20019;-71
2021/12/14 05:24:16;;;;;;;26.08;11.98;;;4.70;99.90;;;;;;5128935;28;20023;-71
2021/12/14 05:26:44;;;;;;;25.60;11.65;;;4.70;99.90;;;;;;5130526;28;20027;-71
2021/12/14 05:29:10;;;;;;;23.25;11.50;;;4.80;99.90;;;;;;5112282;28;20034;-71
2021/12/14 05:31:45;;;;;;;22.73;10.95;;;4.90;99.90;;;;;;5129875;28;20062;-72
2021/12/14 05:34:11;;;;;;;20.55;10.80;;;4.80;99.90;;;;;;5128602;28;20023;-71
2021/12/14 05:36:41;;;;;;;25.02;10.85;;;4.70;99.90;;;;;;5130062;28;20019;-71
2021/12/14 05:39:37;;;;;;;23.92;11.07;;;4.70;99.90;;;;;;5128174;28;20027;-71
2021/12/14 05:44:37;;;;;;;28.40;12.05;;;4.60;99.90;;;;;;5129731;28;20208;-71
2021/12/14 05:47:10;;;;;;;26.88;11.40;;;4.60;99.90;;;;;;5129714;28;20122;-71
2021/12/14 05:49:38;;;;;;;22.77;11.15;;;4.60;99.90;;;;;;5128605;28;20106;-71
2021/12/14 05:52:20;;;;;;;28.42;11.75;;;4.60;99.90;;;;;;5130152;28;20027;-71
2021/12/14 05:54:46;;;;;;;26.83;12.70;;;4.60;99.90;;;;;;5127648;28;20023;-71
2021/12/14 05:57:25;;;;;;;22.27;11.23;;;4.60;99.90;;;;;;5130136;28;20019;-70
2021/12/14 05:59:52;;;;;;;25.08;11.18;;;4.60;99.90;;;;;;5128929;28;20019;-70
2021/12/14 06:02:19;;;;;;;23.17;11.35;;;4.60;99.90;;;;;;5130640;28;20032;-71
2021/12/14 06:04:50;;;;;;;23.05;11.30;;;4.60;99.90;;;;;;5131270;28;20023;-70
2021/12/14 06:07:17;;;;;;;20.55;10.18;;;4.60;99.90;;;;;;5130830;28;20034;-71
2021/12/14 06:09:47;;;;;;;21.52;10.63;;;4.60;99.90;;;;;;5131708;28;20035;-71
2021/12/14 06:12:21;;;;;;;17.92;8.70;;;4.60;99.90;;;;;;5133760;27;20108;-71
2021/12/14 06:14:54;;;;;;;20.35;10.18;;;4.60;99.90;;;;;;5135086;27;20038;-71
2021/12/14 06:17:29;;;;;;;24.42;10.68;;;4.60;99.90;;;;;;5134264;27;20379;-71
2021/12/14 06:20:20;;;;;;;22.60;10.55;;;4.60;99.90;;;;;;5135006;27;20027;-71
2021/12/14 06:22:48;;;;;;;20.08;9.43;;;4.60;99.90;;;;;;5134975;27;20027;-71
2021/12/14 06:25:21;;;;;;;20.98;10.02;;;4.70;99.90;;;;;;5134853;27;20027;-71
2021/12/14 06:27:47;;;;;;;18.60;9.23;;;4.70;99.90;;;;;;5134681;27;20026;-71
2021/12/14 06:30:21;;;;;;;19.05;9.52;;;4.60;99.90;;;;;;5134774;27;20024;-70
2021/12/14 06:32:54;;;;;;;16.73;8.93;;;4.60;99.90;;;;;;5134568;27;20467;-71
2021/12/14 06:35:28;;;;;;;16.77;8.77;;;4.70;99.90;;;;;;5133440;27;20551;-73
2021/12/14 06:40:39;;;;;;;16.33;7.97;;;4.60;99.90;;;;;;5134045;27;20033;-74
2021/12/14 06:43:10;;;;;;;14.65;8.00;;;4.60;99.90;;;;;;5134556;27;20030;-70
2021/12/14 06:45:39;;;;;;;14.10;7.57;;;4.60;99.90;;;;;;5134111;27;20456;-71
2021/12/14 06:48:13;;;;;;;13.15;7.28;;;4.70;99.90;;;;;;5134607;27;20100;-70
2021/12/14 06:50:47;;;;;;;12.77;7.25;;;4.70;99.90;;;;;;5133809;27;20035;-70
2021/12/14 06:53:16;;;;;;;13.18;7.45;;;4.70;99.90;;;;;;5134715;27;20034;-71
2021/12/14 06:55:43;;;;;;;15.07;8.00;;;4.60;99.90;;;;;;5115622;27;20475;-72
2021/12/14 06:58:10;;;;;;;15.90;7.88;;;4.60;99.90;;;;;;5134386;27;20035;-73
2021/12/14 07:00:38;;;;;;;12.80;7.43;;;4.60;99.90;;;;;;5115146;27;20034;-73
2021/12/14 07:03:04;;;;;;;14.35;7.75;;;4.50;99.90;;;;;;5134396;27;20057;-71
2021/12/14 07:05:31;;;;;;;19.50;9.23;;;4.60;99.90;;;;;;5114899;27;20042;-71
2021/12/14 07:07:59;;;;;;;13.15;7.75;;;4.50;99.90;;;;;;5133980;27;20133;-72
2021/12/14 07:10:25;;;;;;;12.70;7.63;;;4.60;99.90;;;;;;5132842;27;20038;-73
2021/12/14 07:12:52;;;;;;;13.82;8.23;;;4.60;99.90;;;;;;5133244;27;20042;-73
2021/12/14 07:15:26;;;;;;;11.13;6.70;;;4.60;99.90;;;;;;5133865;27;20027;-72
2021/12/14 07:18:02;;;;;;;11.55;6.82;;;4.60;99.90;;;;;;5133669;27;20035;-70
2021/12/14 07:20:37;;;;;;;11.05;6.60;;;4.60;99.90;;;;;;5133163;27;20045;-73
2021/12/14 07:23:14;;;;;;;11.00;6.75;;;4.60;99.90;;;;;;5133396;27;20019;-72
2021/12/14 07:25:40;;;;;;;9.85;6.45;;;4.50;99.90;;;;;;5132634;27;20704;-73
2021/12/14 07:28:08;;;;;;;12.63;7.38;;;4.50;99.90;;;;;;5133179;27;20398;-72
2021/12/14 07:30:36;;;;;;;12.60;6.30;;;4.40;99.90;;;;;;5132396;27;20015;-72
2021/12/14 07:33:12;;;;;;;9.02;6.25;;;4.40;99.90;;;;;;5133120;27;20472;-71
2021/12/14 07:35:52;;;;;;;12.00;7.22;;;4.50;99.90;;;;;;5132979;27;20027;-70
2021/12/14 07:38:47;;;;;;;10.60;6.73;;;4.60;99.90;;;;;;5133080;27;20046;-72
2021/12/14 07:41:12;;;;;;;11.80;6.70;;;4.50;99.90;;;;;;5103360;27;20277;-71
2021/12/14 07:44:01;;;;;;;11.75;6.88;;;4.40;99.90;;;;;;5132306;27;20476;-71
2021/12/14 07:46:44;;;;;;;11.00;6.57;;;4.40;99.90;;;;;;5129443;27;20122;-70
2021/12/14 07:49:32;;;;;;;10.32;6.35;;;4.30;99.90;;;;;;5133098;27;20031;-71
2021/12/14 07:52:26;;;;;;;10.13;6.65;;;4.30;99.90;;;;;;5119206;27;20035;-71
2021/12/14 07:55:14;;;;;;;13.25;6.63;;;4.30;99.90;;;;;;5129622;27;20039;-71
2021/12/14 07:57:40;;;;;;;12.90;6.70;;;4.30;99.90;;;;;;5131910;27;20031;-72
2021/12/14 08:00:25;;;;;;;13.00;7.10;;;4.30;99.90;;;;;;5132531;27;20379;-73
2021/12/14 08:02:53;;;;;;;10.35;6.63;;;4.40;99.90;;;;;;5113598;27;20133;-70
2021/12/14 08:05:36;;;;;;;10.55;6.50;;;4.40;99.90;;;;;;5129421;27;20033;-71
2021/12/14 08:08:19;;;;;;;10.27;6.63;;;4.40;99.90;;;;;;5131759;27;20035;-70
2021/12/14 08:11:08;;;;;;;9.80;6.13;;;4.40;99.90;;;;;;5131752;27;20114;-70
2021/12/14 08:13:41;;;;;;;12.13;7.50;;;4.50;99.90;;;;;;5131594;27;20023;-71
2021/12/14 08:16:07;;;;;;;11.32;7.00;;;4.50;99.90;;;;;;5130969;27;20038;-70
2021/12/14 08:18:37;;;;;;;12.65;7.10;;;4.50;99.90;;;;;;5116836;27;20031;-71
2021/12/14 08:21:19;;;;;;;12.33;7.63;;;4.40;99.90;;;;;;5132042;27;20046;-71
2021/12/14 08:23:58;;;;;;;13.43;7.97;;;4.50;99.90;;;;;;5131254;27;20019;-71
2021/12/14 08:26:42;;;;;;;12.85;7.90;;;4.50;99.90;;;;;;5132187;27;20034;-70
2021/12/14 08:29:27;;;;;;;13.85;7.13;;;4.50;99.90;;;;;;5113615;27;20031;-71
2021/12/14 08:32:02;;;;;;;15.98;8.48;;;4.50;99.90;;;;;;5114396;27;20023;-70
2021/12/14 08:34:32;;;;;;;12.48;8.25;;;4.60;99.90;;;;;;5113173;27;20033;-72
2021/12/14 08:37:04;;;;;;;14.57;8.25;;;4.70;99.90;;;;;;5131933;27;20019;-70
2021/12/14 08:39:33;;;;;;;15.48;8.07;;;4.70;99.90;;;;;;5131317;27;20035;-71
2021/12/14 08:42:14;;;;;;;14.13;8.50;;;4.80;99.90;;;;;;5132147;27;20027;-70
2021/12/14 08:44:51;;;;;;;12.25;7.55;;;4.80;99.90;;;;;;5131040;27;20094;-71
2021/12/14 08:47:39;;;;;;;12.32;8.20;;;5.00;99.90;;;;;;5130579;27;20511;-70
2021/12/14 08:50:10;;;;;;;10.65;7.03;;;5.00;99.90;;;;;;5111274;28;20032;-71
2021/12/14 08:52:36;;;;;;;12.35;7.72;;;5.00;99.90;;;;;;5110529;28;20468;-71
2021/12/14 08:55:05;;;;;;;11.35;7.25;;;5.00;99.90;;;;;;5111436;28;20020;-70
2021/12/14 08:57:33;;;;;;;12.32;7.30;;;5.00;99.90;;;;;;5110479;28;20031;-70
2021/12/14 09:00:08;;;;;;;11.05;7.20;;;4.90;99.90;;;;;;5111033;28;20027;-70
2021/12/14 09:02:34;;;;;;;10.75;6.72;;;4.90;99.90;;;;;;5110673;28;20057;-71
2021/12/14 09:05:14;;;;;;;12.75;7.70;;;5.00;99.90;;;;;;5119156;28;20426;-70
2021/12/14 09:07:40;;;;;;;9.88;6.68;;;5.00;99.90;;;;;;5130901;28;20042;-70
2021/12/14 09:10:11;;;;;;;10.80;7.50;;;5.20;99.90;;;;;;5131936;28;20034;-71
2021/12/14 09:12:41;;;;;;;9.50;6.28;;;5.20;99.90;;;;;;5130813;28;20482;-71
2021/12/14 09:15:11;;;;;;;14.30;7.68;;;5.30;99.90;;;;;;5130462;28;20058;-71
2021/12/14 09:17:37;;;;;;;12.82;7.90;;;5.30;99.90;;;;;;5091638;28;20487;-71
2021/12/14 09:20:16;;;;;;;13.00;7.18;;;5.20;99.90;;;;;;5130351;28;20132;-71
2021/12/14 09:22:45;;;;;;;10.70;7.32;;;5.20;99.90;;;;;;5130625;28;20163;-71
2021/12/14 09:25:15;;;;;;;11.77;7.00;;;5.30;99.90;;;;;;5131197;28;20328;-71
2021/12/14 09:27:42;;;;;;;10.45;6.80;;;5.30;99.90;;;;;;5130356;28;20027;-71
2021/12/14 09:30:10;;;;;;;12.48;7.32;;;5.30;99.90;;;;;;5131218;28;20038;-71
2021/12/14 09:32:37;;;;;;;12.27;7.57;;;5.50;99.90;;;;;;5110024;28;20173;-72
2021/12/14 09:35:06;;;;;;;10.23;7.43;;;5.70;99.90;;;;;;5129080;28;20523;-71
2021/12/14 09:37:32;;;;;;;13.23;8.70;;;5.80;99.90;;;;;;5112613;28;20027;-72
2021/12/14 09:40:08;;;;;;;10.55;6.30;;;5.90;99.90;;;;;;5131852;28;20161;-71
2021/12/14 09:42:35;;;;;;;9.95;7.03;;;6.00;99.90;;;;;;5131152;28;20088;-72
2021/12/14 09:45:08;;;;;;;13.02;7.38;;;6.20;99.90;;;;;;5129358;27;20098;-71
2021/12/14 09:47:34;;;;;;;12.98;7.53;;;6.30;99.90;;;;;;5133431;27;20127;-71
2021/12/14 09:50:06;;;;;;;10.50;6.93;;;6.50;99.90;;;;;;5133581;27;20059;-71
2021/12/14 09:52:36;;;;;;;10.10;7.00;;;6.60;99.90;;;;;;5134395;27;20024;-71
2021/12/14 09:55:07;;;;;;;11.77;6.70;;;6.60;99.90;;;;;;5135847;27;20031;-70
2021/12/14 09:57:37;;;;;;;10.25;6.85;;;6.60;99.90;;;;;;5133829;27;20031;-71
2021/12/14 10:00:08;;;;;;;;;;;6.60;99.90;;;;;;5136195;27;20049;-71
2021/12/14 10:02:38;;;;;;;10.60;7.10;;;6.60;99.90;;;;;;5134882;27;19903;-72
2021/12/14 10:05:13;;;;;;;15.20;7.55;;;6.60;99.90;;;;;;5135311;27;20019;-71
2021/12/14 10:07:39;;;;;;;9.88;6.60;;;6.60;99.90;;;;;;5114019;27;20062;-71
2021/12/14 10:10:07;;;;;;;9.93;6.85;;;6.70;99.90;;;;;;5114897;28;20027;-70
2021/12/14 10:12:49;;;;;;;8.38;6.63;;;6.70;99.90;;;;;;5113238;28;20031;-75
2021/12/14 10:15:40;;;;;;;9.88;6.40;;;6.70;99.90;;;;;;5114777;27;20028;-74
2021/12/14 10:18:14;;;;;;;9.73;6.88;;;6.70;99.90;;;;;;5134039;27;20119;-73
2021/12/14 10:20:46;;;;;;;8.98;7.05;;;6.70;99.90;;;;;;5134086;27;20034;-73
2021/12/14 10:23:13;;;;;;;11.68;6.75;;;6.70;99.90;;;;;;5135004;27;20529;-71
2021/12/14 10:25:39;;;;;;;10.43;6.93;;;6.80;99.90;;;;;;5134304;27;20046;-71
2021/12/14 10:28:06;;;;;;;9.27;6.82;;;6.80;99.90;;;;;;5134889;27;20034;-71
2021/12/14 10:30:36;;;;;;;10.57;7.15;;;6.80;99.90;;;;;;5134312;27;20027;-73
2021/12/14 10:33:02;;;;;;;9.77;7.10;;;6.80;99.90;;;;;;5134508;27;20027;-72
2021/12/14 10:35:39;;;;;;;14.25;8.27;;;6.90;99.90;;;;;;5134488;27;20024;-71
2021/12/14 10:38:34;;;;;;;13.13;7.30;;;7.00;99.90;;;;;;5134804;27;20035;-71
2021/12/14 10:43:55;;;;;;;10.38;7.15;;;6.90;99.90;;;;;;5125214;27;20091;-71
2021/12/14 10:46:37;;;;;;;10.82;6.97;;;6.90;99.90;;;;;;5132893;27;20047;-71
2021/12/14 10:49:04;;;;;;;11.68;7.88;;;6.90;99.90;;;;;;5127658;27;20039;-71
2021/12/14 10:51:35;;;;;;;10.52;6.68;;;6.80;99.90;;;;;;5133727;27;20072;-73
2021/12/14 10:54:03;;;;;;;11.13;6.82;;;6.80;99.90;;;;;;5135053;27;20030;-71
2021/12/14 10:56:34;;;;;;;13.48;7.07;;;6.90;99.90;;;;;;5134002;27;20043;-71
2021/12/14 10:59:03;;;;;;;18.80;8.27;;;6.90;99.90;;;;;;5134666;27;20427;-71
2021/12/14 11:01:33;;;;;;;10.38;7.03;;;7.00;99.90;;;;;;5133905;27;20027;-71
2021/12/14 11:04:08;;;;;;;11.35;7.03;;;7.10;99.90;;;;;;5134651;27;20031;-71
2021/12/14 11:06:36;;;;;;;15.15;7.88;;;7.10;99.90;;;;;;5133851;27;20072;-73
2021/12/14 11:11:35;;;;;;;12.50;7.38;;;7.10;99.90;;;;;;5131180;27;20153;-71
2021/12/14 11:14:06;;;;;;;15.43;8.30;;;7.10;99.90;;;;;;5134977;27;20023;-71
2021/12/14 11:19:38;;;;;;;13.38;7.22;;;7.10;99.90;;;;;;5134403;27;20042;-70
2021/12/14 11:22:29;;;;;;;13.68;7.68;;;7.20;99.90;;;;;;5134291;27;20027;-70
2021/12/14 11:25:04;;;;;;;14.70;7.85;;;7.20;99.90;;;;;;5131203;27;20261;-71
2021/12/14 11:27:36;;;;;;;10.05;6.68;;;7.20;99.90;;;;;;5133517;27;20035;-70
2021/12/14 11:30:18;;;;;;;12.20;7.47;;;7.20;99.90;;;;;;5134042;27;20023;-70
2021/12/14 11:32:47;;;;;;;12.32;7.43;;;7.30;99.90;;;;;;5133041;27;20459;-71
2021/12/14 11:35:28;;;;;;;17.02;8.75;;;7.30;99.90;;;;;;5133653;27;20352;-71
2021/12/14 11:37:57;;;;;;;14.25;8.00;;;7.40;99.90;;;;;;5133017;27;20034;-71
2021/12/14 11:40:25;;;;;;;12.40;7.25;;;7.40;99.90;;;;;;5120886;27;20375;-71
2021/12/14 11:42:52;;;;;;;14.75;8.40;;;7.60;99.90;;;;;;5131906;27;20030;-69
2021/12/14 11:45:21;;;;;;;14.07;8.55;;;7.60;99.90;;;;;;5133614;27;20023;-71
2021/12/14 11:47:52;;;;;;;14.00;8.20;;;7.70;99.90;;;;;;5131892;27;20499;-72
2021/12/14 11:50:24;;;;;;;17.52;8.00;;;7.80;99.90;;;;;;5133565;27;20042;-72
2021/12/14 11:52:50;;;;;;;12.75;8.55;;;7.80;99.90;;;;;;5132332;27;20087;-78
2021/12/14 11:55:28;;;;;;;15.85;8.40;;;7.90;99.90;;;;;;5136362;27;20096;-78
2021/12/14 11:58:08;;;;;;;14.57;8.98;;;7.90;99.90;;;;;;5132792;27;20023;-75
2021/12/14 12:00:39;;;;;;;15.55;8.35;;;7.90;99.90;;;;;;5114755;27;20051;-75
2021/12/14 12:03:21;;;;;;;;;;;7.90;99.90;;;;;;5133996;27;20031;-74
2021/12/14 12:06:07;;;;;;;18.42;8.75;;;7.90;99.90;;;;;;5131665;27;19903;-74
2021/12/14 12:11:21;;;;;;;12.77;8.30;;;8.10;99.90;;;;;;5133078;27;20030;-70
2021/12/14 12:13:47;;;;;;;12.40;7.80;;;8.20;99.90;;;;;;5132109;27;20034;-71
2021/12/14 12:16:21;;;;;;;11.00;8.30;;;8.20;99.90;;;;;;5132849;27;20061;-70
2021/12/14 12:19:13;;;;;;;12.23;8.00;;;8.20;99.90;;;;;;5132176;27;20085;-68
2021/12/14 12:21:40;;;;;;;11.73;7.28;;;8.30;99.90;;;;;;5132041;27;20106;-69
2021/12/14 12:24:33;;;;;;;15.15;7.68;;;8.30;99.90;;;;;;5132620;27;20087;-70
2021/12/14 12:27:32;;;;;;;14.32;8.50;;;8.30;99.90;;;;;;5131909;27;20027;-71
2021/12/14 12:30:34;;;;;;;12.23;7.97;;;8.30;99.90;;;;;;5131951;27;20125;-73
2021/12/14 12:33:10;;;;;;;13.48;8.50;;;8.30;99.90;;;;;;5114295;27;20034;-74
2021/12/14 12:35:41;;;;;;;12.45;8.95;;;8.30;99.90;;;;;;5131014;27;20475;-75
2021/12/14 12:38:28;;;;;;;12.20;8.68;;;8.20;99.90;;;;;;5132790;27;20037;-75
2021/12/14 12:41:08;;;;;;;15.73;9.48;;;8.20;99.90;;;;;;5113912;27;20027;-71
2021/12/14 12:43:44;;;;;;;14.20;8.75;;;8.20;99.90;;;;;;5132603;27;20023;-72
2021/12/14 12:46:23;;;;;;;17.13;9.45;;;8.00;99.90;;;;;;5132174;27;20035;-71
2021/12/14 12:49:09;;;;;;;13.82;9.32;;;8.10;99.90;;;;;;5128769;27;20773;-73
2021/12/14 12:51:46;;;;;;;14.88;10.35;;;8.00;99.90;;;;;;5131022;27;20038;-73
2021/12/14 12:54:26;;;;;;;15.55;9.20;;;8.10;99.90;;;;;;5132726;27;20023;-71
2021/12/14 12:57:13;;;;;;;16.23;9.43;;;8.10;99.90;;;;;;5131812;27;20027;-72
2021/12/14 12:59:51;;;;;;;13.93;9.68;;;8.00;99.90;;;;;;5132348;27;20035;-73
2021/12/14 13:02:17;;;;;;;24.85;9.25;;;8.00;99.90;;;;;;5132716;28;20048;-72
2021/12/14 13:04:46;;;;;;;16.55;9.82;;;8.00;99.90;;;;;;5131302;28;20501;-72
2021/12/14 13:07:12;;;;;;;16.65;9.68;;;8.00;99.90;;;;;;5131017;28;20020;-72
2021/12/14 13:10:01;;;;;;;15.45;9.18;;;8.10;99.90;;;;;;5131962;28;20529;-72
2021/12/14 13:12:43;;;;;;;12.02;8.50;;;8.00;99.90;;;;;;5132520;28;20023;-71
2021/12/14 13:15:33;;;;;;;15.70;9.07;;;8.00;99.90;;;;;;5132121;28;20030;-72
2021/12/14 13:18:23;;;;;;;13.18;9.10;;;8.00;99.90;;;;;;5131515;28;20051;-72
2021/12/14 13:20:51;;;;;;;;;;;8.00;99.90;;;;;;5134275;27;20080;-72
2021/12/14 13:23:22;;;;;;;16.73;9.60;;;8.00;99.90;;;;;;5136357;27;19950;-72
2021/12/14 13:25:48;;;;;;;15.27;9.30;;;8.00;99.90;;;;;;5135972;27;20459;-71
2021/12/14 13:28:15;;;;;;;18.08;9.23;;;8.00;99.90;;;;;;5117555;27;20035;-72
2021/12/14 13:30:42;;;;;;;17.42;9.68;;;8.00;99.90;;;;;;5135788;27;20106;-72
2021/12/14 13:33:29;;;;;;;17.85;9.90;;;7.90;99.90;;;;;;5136077;27;20027;-72
2021/12/14 13:35:55;;;;;;;17.20;9.95;;;7.90;99.90;;;;;;5135547;27;20027;-72
2021/12/14 13:38:21;;;;;;;15.77;9.43;;;7.80;99.90;;;;;;5136078;27;20437;-72
2021/12/14 13:40:48;;;;;;;13.88;8.85;;;7.70;99.90;;;;;;5135140;27;20106;-72
2021/12/14 13:43:16;;;;;;;17.13;10.32;;;7.70;99.90;;;;;;5135730;27;20031;-72
2021/12/14 13:45:44;;;;;;;15.35;9.57;;;7.60;99.90;;;;;;5134874;27;20023;-72
2021/12/14 13:48:14;;;;;;;14.40;9.52;;;7.60;99.90;;;;;;5134867;27;20050;-72
2021/12/14 13:50:46;;;;;;;17.88;11.00;;;7.50;99.90;;;;;;5136126;27;20027;-72